Time;durP1;ratioP1;P1;durP2;ratioP2;P2;SDS_P1;SDS_P2;PMS_P1;PMS_P2;Temp;Humidity;BMP_temperature;BMP_pressure;BME280_temperature;BME280_humidity;BME280_pressure;Samples;Min_cycle;Max_cycle;Signal;HPM_P1;HPM_P2
2022/03/06 00:00:08;;;;;;;;;81.00;62.00;;;;;7.63;89.65;101688.97;5060588;28;45319;-70
2022/03/06 00:02:33;;;;;;;;;94.75;66.00;;;;;7.64;87.35;101689.84;5060364;28;45224;-72
2022/03/06 00:04:59;;;;;;;;;87.75;62.75;;;;;7.60;86.01;101688.94;5060602;28;45217;-71
2022/03/06 00:07:24;;;;;;;;;92.00;70.75;;;;;7.61;86.04;101695.88;5059570;28;45350;-69
2022/03/06 00:09:49;;;;;;;;;94.75;66.25;;;;;7.59;86.34;101691.53;5060757;28;45353;-69
2022/03/06 00:12:15;;;;;;;;;90.00;62.25;;;;;7.55;87.79;101693.28;5060575;28;45462;-70
2022/03/06 00:14:40;;;;;;;;;98.67;69.67;;;;;7.53;86.06;101696.72;5060435;28;45501;-71
2022/03/06 00:17:06;;;;;;;;;97.33;67.33;;;;;7.48;88.04;101699.31;5060025;28;45313;-68
2022/03/06 00:19:31;;;;;;;;;90.25;62.00;;;;;7.44;86.88;101691.56;5059977;28;45297;-69
2022/03/06 00:21:56;;;;;;;;;100.25;69.50;;;;;7.40;87.56;101700.16;5059601;28;45343;-68
2022/03/06 00:24:22;;;;;;;;;87.00;62.25;;;;;7.37;87.63;101700.16;5060514;28;45337;-69
2022/03/06 00:26:47;;;;;;;;;93.00;63.75;;;;;7.30;88.54;101694.13;5060223;28;45316;-69
2022/03/06 00:29:13;;;;;;;;;100.00;68.00;;;;;7.27;88.24;101704.47;5060400;28;45338;-69
2022/03/06 00:31:39;;;;;;;;;87.50;68.25;;;;;7.23;85.99;101700.16;5059932;28;45346;-69
2022/03/06 00:34:05;;;;;;;;;97.00;68.67;;;;;7.25;85.84;101706.19;5060432;28;45382;-68
2022/03/06 00:36:30;;;;;;;;;93.50;67.50;;;;;7.20;86.28;101698.41;5059124;28;46155;-69
2022/03/06 00:38:55;;;;;;;;;97.00;69.25;;;;;7.20;84.29;101702.72;5060310;28;45228;-69
2022/03/06 00:41:23;;;;;;;;;117.25;91.00;;;;;7.16;84.68;101700.97;5060142;28;45609;-69
2022/03/06 00:43:48;;;;;;;;;101.00;74.75;;;;;7.09;85.02;101688.91;5060415;28;45275;-68
2022/03/06 00:46:14;;;;;;;;;92.25;65.75;;;;;7.08;84.74;101684.63;5059351;28;47245;-68
2022/03/06 00:48:39;;;;;;;;;93.50;61.75;;;;;7.04;85.09;101691.50;5059847;28;45298;-69
2022/03/06 00:51:05;;;;;;;;;93.50;66.75;;;;;7.07;83.80;101695.81;5059736;28;45496;-68
2022/03/06 00:53:30;;;;;;;;;94.50;65.50;;;;;7.06;83.16;101694.09;5059171;28;45421;-68
2022/03/06 00:55:55;;;;;;;;;98.33;69.67;;;;;7.03;82.88;101684.59;5059487;28;45333;-68
2022/03/06 00:58:21;;;;;;;;;96.25;72.00;;;;;7.04;82.62;101690.63;5059935;28;45396;-68
2022/03/06 01:00:47;;;;;;;;;86.00;65.75;;;;;7.03;81.97;101686.34;5059115;28;45288;-68
2022/03/06 01:03:21;;;;;;;;;88.00;63.75;;;;;7.01;82.12;101701.84;5057601;28;45473;-68
2022/03/06 01:05:46;;;;;;;;;98.50;75.25;;;;;6.98;81.51;101697.50;5057013;28;45642;-69
2022/03/06 01:08:12;;;;;;;;;88.50;63.50;;;;;6.95;81.23;101713.00;5056610;28;45403;-69
2022/03/06 01:10:39;;;;;;;;;87.00;62.50;;;;;6.93;81.09;101711.28;5057347;28;45560;-69
2022/03/06 01:13:06;;;;;;;;;94.00;64.00;;;;;6.91;80.38;101711.25;5057611;28;45555;-70
2022/03/06 01:15:31;;;;;;;;;88.50;61.00;;;;;6.88;81.43;101711.25;5056887;28;46540;-70
2022/03/06 01:17:57;;;;;;;;;86.00;61.00;;;;;6.86;80.64;101718.16;5057032;28;45587;-71
2022/03/06 01:20:23;;;;;;;;;90.25;61.50;;;;;6.84;80.91;101711.25;5056967;28;45516;-71
2022/03/06 01:22:49;;;;;;;;;94.25;65.25;;;;;6.79;80.26;101706.03;5056644;28;45487;-71
2022/03/06 01:25:15;;;;;;;;;81.25;55.50;;;;;6.76;80.41;101715.50;5056966;28;45820;-69
2022/03/06 01:27:40;;;;;;;;;80.00;52.25;;;;;6.72;80.31;101702.59;5055615;28;45659;-70
2022/03/06 01:30:08;;;;;;;;;85.50;60.00;;;;;6.68;79.73;101705.16;5056990;28;45525;-70
2022/03/06 01:32:33;;;;;;;;;80.50;61.00;;;;;6.63;79.66;101707.72;5056955;28;45379;-70
2022/03/06 01:34:59;;;;;;;;;87.25;62.25;;;;;6.59;78.76;101705.09;5056724;28;46605;-70
2022/03/06 01:37:25;;;;;;;;;82.25;63.50;;;;;6.56;79.28;101708.53;5057507;28;45335;-72
2022/03/06 01:39:51;;;;;;;;;93.75;67.00;;;;;6.51;79.43;101709.38;5058003;28;45377;-72
2022/03/06 01:42:17;;;;;;;;;91.75;67.25;;;;;6.46;78.89;101703.34;5058416;28;45241;-72
2022/03/06 01:44:46;;;;;;;;;84.50;61.50;;;;;6.40;79.20;101710.19;5059072;28;46419;-68
2022/03/06 01:47:11;;;;;;;;;79.50;57.00;;;;;6.38;78.44;101717.06;5058718;28;45326;-68
2022/03/06 01:49:37;;;;;;;;;92.50;65.50;;;;;6.33;78.44;101699.81;5059225;28;45556;-68
2022/03/06 01:52:03;;;;;;;;;82.25;59.50;;;;;6.30;78.75;101717.88;5059433;28;45291;-68
2022/03/06 01:54:28;;;;;;;;;85.75;59.25;;;;;6.27;78.55;101713.56;5057481;28;47136;-68
2022/03/06 01:56:53;;;;;;;;;85.33;61.33;;;;;6.23;77.68;101719.56;5074967;28;45339;-68
2022/03/06 01:59:22;;;;;;;;;79.75;60.50;;;;;6.18;77.83;101710.91;5057852;28;45450;-68
2022/03/06 02:01:48;;;;;;;;;97.75;64.00;;;;;6.15;77.25;101710.03;5059021;28;45252;-67
2022/03/06 02:04:14;;;;;;;;;88.50;64.00;;;;;6.12;77.84;101716.06;5058949;28;46107;-67
2022/03/06 02:06:39;;;;;;;;;88.75;64.25;;;;;6.07;77.17;101728.06;5059102;28;45275;-67
2022/03/06 02:09:04;;;;;;;;;87.75;64.50;;;;;6.06;76.89;101721.19;5058945;28;45319;-67
2022/03/06 02:11:31;;;;;;;;;73.00;60.50;;;;;5.95;77.93;101723.66;5058973;28;45311;-67
2022/03/06 02:13:56;;;;;;;;;84.00;61.00;;;;;5.89;78.15;101712.41;5059319;28;46618;-67
2022/03/06 02:16:22;;;;;;;;;84.75;59.00;;;;;5.86;77.56;101714.97;5078206;27;45718;-67
2022/03/06 02:18:47;;;;;;;;;85.00;60.25;;;;;5.78;77.81;101707.16;5061890;28;45260;-67
2022/03/06 02:21:14;;;;;;;;;72.50;52.75;;;;;5.64;78.21;101714.81;5061757;28;45334;-67
2022/03/06 02:23:40;;;;;;;;;89.00;64.00;;;;;5.65;77.94;101710.53;5060943;28;45422;-70
2022/03/06 02:26:07;;;;;;;;;83.25;56.75;;;;;5.64;76.81;101713.94;5062437;28;45566;-69
2022/03/06 02:28:33;;;;;;;;;82.50;62.50;;;;;5.59;78.27;101706.16;5062285;28;45507;-69
2022/03/06 02:30:59;;;;;;;;;93.50;66.00;;;;;5.57;77.83;101704.41;5062553;28;45301;-69
2022/03/06 02:33:25;;;;;;;;;74.75;55.50;;;;;5.54;78.34;101704.41;5061874;28;45423;-69
2022/03/06 02:35:50;;;;;;;;;85.00;61.25;;;;;5.47;78.83;101706.06;5062266;28;45438;-69
2022/03/06 02:38:16;;;;;;;;;79.50;60.50;;;;;5.43;77.90;101701.75;5062217;28;45288;-69
2022/03/06 02:40:44;;;;;;;;;90.33;64.33;;;;;5.42;77.42;101705.16;5062282;28;45503;-70
2022/03/06 02:43:15;;;;;;;;;68.00;50.75;;;;;5.39;78.48;101700.81;5060500;28;48127;-70
2022/03/06 02:45:41;;;;;;;;;81.75;57.00;;;;;5.34;77.94;101701.63;5061693;28;45366;-70
2022/03/06 02:48:07;;;;;;;;;61.75;49.25;;;;;5.27;77.51;101700.72;5061477;28;45431;-69
2022/03/06 02:50:36;;;;;;;;;84.25;62.00;;;;;5.24;77.74;101699.84;5062122;28;45533;-70
2022/03/06 02:53:04;;;;;;;;;87.50;59.25;;;;;5.22;77.80;101707.56;5061841;28;45518;-69
2022/03/06 02:55:30;;;;;;;;;90.25;65.50;;;;;5.22;77.46;101706.69;5061712;28;45940;-70
2022/03/06 02:57:55;;;;;;;;;82.00;60.00;;;;;5.17;78.05;101712.63;5061910;28;45399;-69
2022/03/06 03:00:23;;;;;;;;;78.00;58.00;;;;;5.11;77.80;101715.16;5061827;28;45492;-69
2022/03/06 03:02:49;;;;;;;;;78.25;58.00;;;;;5.08;77.02;101716.84;5061440;28;46372;-70
2022/03/06 03:05:16;;;;;;;;;78.00;59.50;;;;;5.05;77.04;101709.94;5061860;28;45620;-69
2022/03/06 03:07:44;;;;;;;;;70.00;54.50;;;;;5.02;77.94;101709.94;5061790;28;45426;-70
2022/03/06 03:10:11;;;;;;;;;76.50;56.50;;;;;4.98;77.44;101708.13;5061758;28;45384;-69
2022/03/06 03:12:37;;;;;;;;;80.25;60.75;;;;;4.95;77.76;101708.09;5061517;28;45418;-69
2022/03/06 03:15:05;;;;;;;;;86.00;61.75;;;;;4.92;77.02;101708.09;5061632;28;45617;-70
2022/03/06 03:17:31;;;;;;;;;80.75;60.75;;;;;4.91;77.62;101708.94;5076929;28;45285;-69
2022/03/06 03:19:56;;;;;;;;;74.00;57.00;;;;;4.90;77.56;101709.78;5061356;27;45506;-69
2022/03/06 03:22:22;;;;;;;;;81.00;60.25;;;;;4.88;76.60;101709.75;5061284;28;46374;-68
2022/03/06 03:24:47;;;;;;;;;79.75;61.25;;;;;4.89;76.59;101708.03;5061466;28;45285;-68
2022/03/06 03:27:12;;;;;;;;;81.50;60.00;;;;;4.88;77.28;101708.91;5061277;28;45596;-68
2022/03/06 03:29:38;;;;;;;;;78.50;62.50;;;;;4.85;77.55;101699.44;5061555;28;45256;-68
2022/03/06 03:32:04;;;;;;;;;70.50;53.75;;;;;4.86;77.26;101710.59;5060832;28;45357;-68
2022/03/06 03:34:29;;;;;;;;;78.25;58.75;;;;;4.84;77.09;101714.88;5061551;28;45756;-68
2022/03/06 03:36:55;;;;;;;;;75.50;59.50;;;;;4.83;77.28;101719.16;5061366;28;45502;-69
2022/03/06 03:39:20;;;;;;;;;78.50;59.50;;;;;4.81;77.49;101709.69;5061349;28;45338;-69
2022/03/06 03:41:45;;;;;;;;;86.50;64.50;;;;;4.80;76.63;101718.22;5060955;28;45382;-68
2022/03/06 03:44:11;;;;;;;;;84.50;64.25;;;;;4.77;76.86;101723.34;5061156;28;45270;-67
2022/03/06 03:46:36;;;;;;;;;83.75;62.00;;;;;4.75;76.68;101732.75;5060407;28;45379;-67
2022/03/06 03:49:02;;;;;;;;;79.00;56.00;;;;;4.71;76.92;101734.44;5060890;28;45418;-72
2022/03/06 03:51:28;;;;;;;;;83.50;57.75;;;;;4.68;78.13;101739.56;5060751;28;45313;-70
2022/03/06 03:53:53;;;;;;;;;81.50;56.50;;;;;4.67;77.29;101749.84;5060830;28;45347;-71
2022/03/06 03:56:21;;;;;;;;;86.67;62.00;;;;;4.63;77.23;101737.78;5060934;28;45424;-69
2022/03/06 03:58:46;;;;;;;;;77.75;56.25;;;;;4.59;78.50;101755.72;5061132;28;45248;-69
2022/03/06 04:01:11;;;;;;;;;79.25;54.00;;;;;4.54;78.02;101751.38;5060515;28;45237;-68
2022/03/06 04:03:37;;;;;;;;;69.67;51.67;;;;;4.53;77.47;101747.94;5060725;28;45233;-68
2022/03/06 04:06:02;;;;;;;;;81.50;62.00;;;;;4.49;77.44;101745.31;5060816;28;45437;-68
2022/03/06 04:08:28;;;;;;;;;69.25;52.50;;;;;4.44;77.24;101749.53;5060717;28;45437;-68
2022/03/06 04:10:56;;;;;;;;;84.67;62.00;;;;;4.41;78.54;101755.50;5060504;28;46262;-68
2022/03/06 04:13:22;;;;;;;;;88.00;65.25;;;;;4.39;77.48;101746.88;5060704;28;45337;-69
2022/03/06 04:15:47;;;;;;;;;85.50;62.50;;;;;4.35;78.69;101751.97;5060573;28;45712;-70
2022/03/06 04:18:12;;;;;;;;;83.67;60.00;;;;;4.30;77.73;101745.91;5060491;28;45551;-70
2022/03/06 04:20:38;;;;;;;;;86.75;60.75;;;;;4.28;78.08;101756.16;5059869;28;46460;-70
2022/03/06 04:23:03;;;;;;;;;80.50;60.00;;;;;4.25;78.51;101757.00;5060614;28;45302;-75
2022/03/06 04:25:28;;;;;;;;;64.50;54.75;;;;;4.24;79.63;101749.25;5060637;28;45407;-74
2022/03/06 04:27:54;;;;;;;;;74.00;56.00;;;;;4.22;79.07;101753.53;5060581;28;45398;-73
2022/03/06 04:30:19;;;;;;;;;89.50;66.25;;;;;4.20;79.20;101760.31;5060183;28;45624;-72
2022/03/06 04:32:44;;;;;;;;;84.50;61.00;;;;;4.15;79.17;101760.25;5060182;28;45317;-73
2022/03/06 04:35:11;;;;;;;;;77.50;61.25;;;;;4.13;79.47;101761.94;5060320;28;45431;-72
2022/03/06 04:37:36;;;;;;;;;91.75;65.00;;;;;4.13;79.07;101766.22;5058201;28;45484;-71
2022/03/06 04:40:03;;;;;;;;;74.50;56.00;;;;;4.10;79.51;101769.63;5060166;28;45465;-70
2022/03/06 04:42:28;;;;;;;;;87.75;66.25;;;;;4.08;79.25;101778.16;5060366;28;45634;-74
2022/03/06 04:44:53;;;;;;;;;98.33;70.00;;;;;4.06;79.51;101772.13;5060127;28;45334;-70
2022/03/06 04:47:19;;;;;;;;;91.25;64.25;;;;;4.01;79.68;101787.50;5059578;28;45577;-69
2022/03/06 04:49:44;;;;;;;;;69.50;53.50;;;;;3.96;78.79;101771.97;5060009;28;46289;-69
2022/03/06 04:52:09;;;;;;;;;75.50;60.50;;;;;3.94;79.16;101783.94;5060292;28;45220;-70
2022/03/06 04:54:35;;;;;;;;;81.50;65.00;;;;;3.93;79.17;101771.06;5059983;28;45240;-70
2022/03/06 04:57:03;;;;;;;;;94.00;67.75;;;;;3.94;79.42;101783.94;5059100;28;45486;-73
2022/03/06 04:59:29;;;;;;;;;84.50;64.75;;;;;3.93;79.10;101771.06;5056036;28;48144;-69
2022/03/06 05:01:55;;;;;;;;;85.00;57.00;;;;;3.89;80.24;101780.44;5057338;28;45502;-75
2022/03/06 05:04:21;;;;;;;;;88.75;65.50;;;;;3.85;80.88;101782.94;5057681;28;45357;-74
2022/03/06 05:06:46;;;;;;;;;74.25;60.00;;;;;3.83;79.85;101785.47;5057741;28;45414;-75
2022/03/06 05:09:12;;;;;;;;;81.00;58.75;;;;;3.80;82.41;101790.53;5057401;28;46207;-73
2022/03/06 05:11:37;;;;;;;;;85.00;61.25;;;;;3.76;81.04;101781.06;5057794;28;45435;-68
2022/03/06 05:14:02;;;;;;;;;91.00;63.00;;;;;3.74;80.97;101780.16;5058760;28;45228;-67
2022/03/06 05:16:28;;;;;;;;;88.25;64.25;;;;;3.73;80.43;101786.16;5057192;28;45386;-67
2022/03/06 05:18:54;;;;;;;;;64.75;50.00;;;;;3.76;80.03;101785.34;5057241;28;45778;-67
2022/03/06 05:21:19;;;;;;;;;73.00;54.50;;;;;3.75;81.05;101789.59;5056998;28;45363;-67
2022/03/06 05:23:45;;;;;;;;;80.75;60.25;;;;;3.77;80.67;101790.50;5057284;28;45726;-66
2022/03/06 05:26:10;;;;;;;;;75.00;54.33;;;;;3.78;80.24;101796.50;5056411;28;45563;-66
2022/03/06 05:28:36;;;;;;;;;70.75;50.00;;;;;3.76;80.92;101796.47;5057571;28;46455;-66
2022/03/06 05:31:01;;;;;;;;;81.75;61.50;;;;;3.73;80.56;101795.56;5074985;27;45334;-66
2022/03/06 05:33:27;;;;;;;;;82.50;61.25;;;;;3.71;80.09;101797.25;5059398;28;45252;-65
2022/03/06 05:35:52;;;;;;;;;81.75;60.50;;;;;3.70;80.40;101806.66;5059121;28;45603;-65
2022/03/06 05:38:17;;;;;;;;;86.75;63.75;;;;;3.68;81.04;101800.63;5059187;28;45422;-71
2022/03/06 05:40:43;;;;;;;;;74.67;48.67;;;;;3.65;81.14;101792.88;5059577;28;45351;-71
2022/03/06 05:43:08;;;;;;;;;74.25;55.75;;;;;3.64;80.66;101793.72;5056218;28;45348;-72
2022/03/06 05:45:34;;;;;;;;;70.50;52.50;;;;;3.64;80.91;101804.84;5056829;28;45278;-72
2022/03/06 05:47:59;;;;;;;;;81.75;61.00;;;;;3.60;82.09;101813.34;5059168;28;45429;-72
2022/03/06 05:50:25;;;;;;;;;79.25;60.00;;;;;3.57;81.10;101814.97;5062932;28;45333;-74
2022/03/06 05:52:50;;;;;;;;;77.00;58.00;;;;;3.55;81.78;101819.22;5062828;28;45661;-70
2022/03/06 05:55:16;;;;;;;;;89.50;67.25;;;;;3.51;81.74;101818.31;5061360;28;45916;-71
2022/03/06 05:57:41;;;;;;;;;77.50;60.25;;;;;3.50;81.67;101815.72;5062521;28;45348;-71
2022/03/06 06:00:08;;;;;;;;;83.25;64.00;;;;;3.46;81.56;101817.38;5062825;28;45286;-71
2022/03/06 06:02:35;;;;;;;;;76.25;52.50;;;;;3.43;82.85;101817.31;5062693;28;45252;-68
2022/03/06 06:05:03;;;;;;;;;90.50;65.75;;;;;3.42;82.17;101828.44;5062909;28;45370;-72
2022/03/06 06:07:28;;;;;;;;;82.25;60.50;;;;;3.42;82.59;101832.72;5062418;28;46220;-72
2022/03/06 06:09:54;;;;;;;;;86.75;60.00;;;;;3.36;83.07;101830.84;5062561;28;45438;-72
2022/03/06 06:12:19;;;;;;;;;83.00;61.67;;;;;3.39;82.72;101828.34;5062544;28;45386;-72
2022/03/06 06:14:44;;;;;;;;;88.33;63.33;;;;;3.38;82.74;101833.47;5062545;28;45597;-70
2022/03/06 06:17:10;;;;;;;;;88.00;63.33;;;;;3.39;83.66;101833.47;5062086;28;46291;-71
2022/03/06 06:19:35;;;;;;;;;71.00;50.00;;;;;3.40;82.66;101837.78;5062310;28;45382;-72
2022/03/06 06:22:00;;;;;;;;;88.25;63.50;;;;;3.42;84.08;101841.28;5062552;28;45211;-68
2022/03/06 06:24:26;;;;;;;;;75.00;60.00;;;;;3.44;83.26;101831.91;5062205;28;45514;-70
2022/03/06 06:26:54;;;;;;;;;67.50;52.25;;;;;3.49;83.23;101835.41;5062198;28;45269;-67
2022/03/06 06:29:19;;;;;;;;;83.00;60.25;;;;;3.45;83.14;101840.47;5062367;28;45465;-67
2022/03/06 06:31:45;;;;;;;;;90.75;63.50;;;;;3.48;82.29;101841.38;5062142;28;45220;-71
2022/03/06 06:34:10;;;;;;;;;84.33;63.33;;;;;3.52;82.52;101845.75;5062368;28;45318;-67
2022/03/06 06:36:36;;;;;;;;;95.50;68.00;;;;;3.51;82.43;101844.00;5075326;28;46094;-67
2022/03/06 06:39:01;;;;;;;;;78.00;59.75;;;;;3.52;83.01;101845.75;5062378;28;45352;-67
2022/03/06 06:41:26;;;;;;;;;77.00;57.50;;;;;3.51;83.04;101856.00;5062238;28;45297;-67
2022/03/06 06:43:52;;;;;;;;;80.00;62.67;;;;;3.50;82.65;101854.25;5062356;28;45236;-67
2022/03/06 06:46:17;;;;;;;;;71.50;52.50;;;;;3.48;83.61;101856.81;5061215;28;45434;-69
2022/03/06 06:48:43;;;;;;;;;71.50;57.00;;;;;3.48;83.16;101866.22;5062091;28;45577;-66
2022/03/06 06:51:09;;;;;;;;;89.50;65.75;;;;;3.50;84.37;101861.97;5062052;28;45637;-66
2022/03/06 06:53:35;;;;;;;;;79.75;57.75;;;;;3.53;83.32;101862.91;5061960;28;45553;-68
2022/03/06 06:56:01;;;;;;;;;96.00;67.75;;;;;3.56;81.77;101862.94;5061730;28;45431;-70
2022/03/06 06:58:26;;;;;;;;;76.50;59.50;;;;;3.55;82.72;101865.50;5062069;28;45199;-69
2022/03/06 07:00:52;;;;;;;;;91.00;63.50;;;;;3.59;82.15;101867.28;5059412;28;45470;-69
2022/03/06 07:03:17;;;;;;;;;79.75;54.00;;;;;3.67;82.54;101869.19;5059722;28;45264;-70
2022/03/06 07:05:45;;;;;;;;;81.25;64.50;;;;;3.78;81.65;101871.94;5060603;28;45232;-68
2022/03/06 07:08:11;;;;;;;;;74.25;52.50;;;;;3.85;81.25;101878.94;5060971;28;45258;-68
2022/03/06 07:10:36;;;;;;;;;85.75;64.00;;;;;3.88;80.90;101873.84;5061040;28;45303;-68
2022/03/06 07:13:02;;;;;;;;;85.67;62.33;;;;;3.88;80.86;101875.53;5076593;28;45452;-69
2022/03/06 07:15:32;;;;;;;;;86.75;62.25;;;;;3.77;80.89;101883.06;5060604;28;45406;-69
2022/03/06 07:17:59;;;;;;;;;97.50;69.50;;;;;3.75;80.21;101876.16;5059437;28;45280;-68
2022/03/06 07:20:26;;;;;;;;;90.25;64.75;;;;;3.66;80.24;101885.44;5060485;28;45267;-69
2022/03/06 07:22:53;;;;;;;;;96.50;70.75;;;;;3.68;80.44;101885.47;5061632;28;45294;-69
2022/03/06 07:25:19;;;;;;;;;82.50;63.00;;;;;3.67;79.84;101889.75;5061278;28;45464;-69
2022/03/06 07:27:44;;;;;;;;;91.00;65.25;;;;;3.67;80.42;101886.31;5060080;28;45297;-70
2022/03/06 07:30:10;;;;;;;;;82.25;59.50;;;;;3.63;80.42;101884.50;5059695;28;45244;-69
2022/03/06 07:32:42;;;;;;;;;99.50;69.00;;;;;3.62;80.35;101903.34;5061315;28;45240;-70
2022/03/06 07:35:08;;;;;;;;;84.25;60.00;;;;;3.64;80.82;101902.53;5061014;28;47183;-70
2022/03/06 07:37:33;;;;;;;;;69.75;51.50;;;;;3.68;80.00;101908.59;5061296;28;45307;-70
2022/03/06 07:39:59;;;;;;;;;79.50;54.25;;;;;3.70;80.05;101916.34;5061023;28;45544;-69
2022/03/06 07:42:24;;;;;;;;;88.33;64.00;;;;;3.64;81.17;101920.53;5061364;28;45454;-70
2022/03/06 07:44:49;;;;;;;;;80.25;61.25;;;;;3.69;79.58;101919.75;5060875;28;45453;-69
2022/03/06 07:47:15;;;;;;;;;83.33;62.00;;;;;3.74;80.60;101913.84;5060796;28;45313;-73
2022/03/06 07:49:40;;;;;;;;;85.50;63.75;;;;;3.85;81.03;101922.66;5061077;28;45240;-69
2022/03/06 07:52:06;;;;;;;;;95.50;68.75;;;;;3.89;79.61;101919.28;5061353;28;45254;-69
2022/03/06 07:54:31;;;;;;;;;78.75;54.50;;;;;3.95;80.05;101919.41;5060545;28;45435;-68
2022/03/06 07:56:56;;;;;;;;;91.25;62.00;;;;;3.98;79.66;101911.72;5061233;28;45230;-69
2022/03/06 07:59:25;;;;;;;;;85.50;63.50;;;;;4.03;79.43;101919.56;5061005;28;45187;-68
2022/03/06 08:01:50;;;;;;;;;83.50;64.75;;;;;4.10;79.59;101923.09;5092728;27;45310;-68
2022/03/06 08:04:16;;;;;;;;;81.75;56.50;;;;;4.19;79.57;101928.38;5060585;28;45401;-69
2022/03/06 08:06:41;;;;;;;;;88.33;65.00;;;;;4.19;78.74;101928.38;5061061;28;45354;-69
2022/03/06 08:09:06;;;;;;;;;85.67;60.67;;;;;4.24;79.42;101934.50;5060665;28;45319;-69
2022/03/06 08:11:32;;;;;;;;;81.00;61.75;;;;;4.28;78.94;101931.13;5059586;28;45343;-69
2022/03/06 08:13:57;;;;;;;;;87.00;67.67;;;;;4.32;78.76;101945.78;5060476;28;45319;-71
2022/03/06 08:16:22;;;;;;;;;79.33;61.33;;;;;4.37;78.99;101951.88;5060443;28;45549;-68
2022/03/06 08:18:48;;;;;;;;;92.00;65.33;;;;;4.41;78.65;101943.38;5060556;28;45488;-68
2022/03/06 08:21:13;;;;;;;;;86.75;64.75;;;;;4.46;78.38;101944.31;5060225;28;45529;-68
2022/03/06 08:23:38;;;;;;;;;73.00;60.67;;;;;4.55;77.96;101957.34;5059766;28;46415;-69
2022/03/06 08:26:04;;;;;;;;;84.33;59.33;;;;;4.58;76.99;101947.06;5060501;28;45394;-69
2022/03/06 08:28:29;;;;;;;;;79.00;53.25;;;;;4.58;76.42;101949.66;5060123;28;45300;-70
2022/03/06 08:30:54;;;;;;;;;88.00;62.00;;;;;4.61;75.84;101946.28;5060616;28;45342;-68
2022/03/06 08:33:20;;;;;;;;;71.50;56.50;;;;;4.65;76.32;101944.63;5059754;28;46189;-69
2022/03/06 08:35:45;;;;;;;;;79.50;62.50;;;;;4.74;76.32;101955.06;5070572;28;45320;-69
2022/03/06 08:38:10;;;;;;;;;70.25;51.50;;;;;4.79;75.62;101954.28;5063778;27;45208;-69
2022/03/06 08:40:36;;;;;;;;;77.25;55.25;;;;;4.85;74.51;101943.22;5060370;28;45573;-69
2022/03/06 08:43:01;;;;;;;;;82.50;61.00;;;;;4.87;74.47;101950.13;5059841;28;46387;-69
2022/03/06 08:45:27;;;;;;;;;77.75;59.25;;;;;4.99;75.20;101952.00;5060223;28;45271;-73
2022/03/06 08:47:52;;;;;;;;;74.00;50.50;;;;;5.13;74.25;101952.22;5059535;28;45188;-68
2022/03/06 08:50:17;;;;;;;;;60.00;40.25;;;;;5.23;73.68;101956.69;5060349;28;45329;-68
2022/03/06 08:52:43;;;;;;;;;78.00;58.25;;;;;5.34;73.76;101959.38;5092527;27;46419;-67
2022/03/06 08:55:09;;;;;;;;;85.00;55.50;;;;;5.40;73.41;101954.31;5059939;28;45211;-67
2022/03/06 08:57:35;;;;;;;;;82.25;55.00;;;;;5.50;72.85;101956.16;5059947;28;45161;-68
2022/03/06 09:00:00;;;;;;;;;77.25;55.00;;;;;5.62;71.45;101963.22;5060124;28;45223;-68
2022/03/06 09:02:26;;;;;;;;;83.00;61.00;;;;;5.67;72.22;101961.53;5059491;28;45489;-71
2022/03/06 09:04:51;;;;;;;;;62.50;43.75;;;;;5.71;71.29;101964.16;5060147;28;45337;-69
2022/03/06 09:07:16;;;;;;;;;76.00;55.25;;;;;5.72;71.90;101970.19;5059861;28;45380;-71
2022/03/06 09:09:42;;;;;;;;;76.50;55.75;;;;;5.76;71.54;101965.06;5059242;28;45314;-68
2022/03/06 09:12:07;;;;;;;;;78.25;58.50;;;;;5.88;70.51;101966.94;5058888;28;45359;-68
2022/03/06 09:14:33;;;;;;;;;58.00;41.50;;;;;5.92;71.36;101976.47;5058995;28;45468;-67
2022/03/06 09:16:58;;;;;;;;;75.33;55.67;;;;;5.98;69.26;101963.63;5058606;28;45417;-68
2022/03/06 09:19:23;;;;;;;;;63.50;50.00;;;;;6.04;70.20;101965.44;5056096;28;45428;-71
2022/03/06 09:21:49;;;;;;;;;72.75;53.25;;;;;6.14;68.99;101967.25;5058464;28;45429;-70
2022/03/06 09:24:14;;;;;;;;;69.75;52.75;;;;;6.31;68.95;101967.44;5058491;28;45302;-71
2022/03/06 09:26:40;;;;;;;;;70.00;53.00;;;;;6.48;68.78;101970.19;5058831;28;45244;-69
2022/03/06 09:29:06;;;;;;;;;51.50;43.25;;;;;6.59;67.16;101966.81;5057976;28;45260;-74
2022/03/06 09:31:32;;;;;;;;;69.25;54.00;;;;;6.69;67.49;101975.53;5059068;28;45262;-74
2022/03/06 09:33:57;;;;;;;;;61.50;48.25;;;;;6.73;66.37;101985.03;5059544;28;45282;-71
2022/03/06 09:36:22;;;;;;;;;67.25;50.00;;;;;6.75;66.35;101975.56;5061316;28;45334;-66
2022/03/06 09:38:48;;;;;;;;;67.00;48.25;;;;;6.79;66.08;101968.69;5071183;27;45251;-65
2022/03/06 09:41:23;;;;;;;;;69.50;47.25;;;;;6.83;66.02;101980.81;5059317;28;46181;-68
2022/03/06 09:43:49;;;;;;;;;45.00;39.00;;;;;6.87;66.99;101988.59;5059610;28;45234;-73
2022/03/06 09:46:19;;;;;;;;;61.50;43.00;;;;;6.91;66.65;101985.16;5056095;28;45855;-67
2022/03/06 09:48:45;;;;;;;;;63.00;48.00;;;;;7.03;65.18;101981.81;5059053;28;45489;-68
2022/03/06 09:51:10;;;;;;;;;54.00;42.00;;;;;7.23;63.55;101987.13;5057568;28;47868;-67
2022/03/06 09:53:35;;;;;;;;;66.50;48.25;;;;;7.30;59.60;101988.88;5058806;28;45316;-67
2022/03/06 09:56:01;;;;;;;;;62.50;42.00;;;;;7.33;64.65;101996.66;5059134;28;45419;-67
2022/03/06 09:58:27;;;;;;;;;38.75;33.75;;;;;7.30;62.94;101994.06;5058658;28;45228;-74
2022/03/06 10:00:52;;;;;;;;;66.25;47.00;;;;;7.40;63.97;101989.78;5056960;28;47840;-73
2022/03/06 10:03:19;;;;;;;;;51.25;42.50;;;;;7.53;63.85;101995.03;5058694;28;45323;-73
2022/03/06 10:05:45;;;;;;;;;53.25;35.25;;;;;7.60;61.64;101985.59;5058991;28;45402;-71
2022/03/06 10:08:27;;;;;;;;;68.25;48.50;;;;;7.75;63.37;101996.00;5058756;28;45376;-72
2022/03/06 10:11:01;;;;;;;;;53.75;44.00;;;;;7.81;61.13;101985.72;5074189;28;47619;-72
2022/03/06 10:13:33;;;;;;;;;51.50;38.00;;;;;7.96;61.88;101987.47;5057571;28;45586;-72
2022/03/06 10:15:59;;;;;;;;;49.00;41.75;;;;;8.36;61.79;101996.22;5058799;28;46388;-67
2022/03/06 10:18:24;;;;;;;;;52.50;40.50;;;;;10.03;59.01;101987.31;5058921;28;45363;-61
2022/03/06 10:20:50;;;;;;;;;62.25;45.00;;;;;11.17;55.96;101988.19;5058191;28;45321;-63
2022/03/06 10:23:25;;;;;;;;;49.25;36.00;;;;;11.33;55.77;101980.22;5059143;28;45322;-72
2022/03/06 10:26:05;;;;;;;;;49.25;38.50;;;;;11.20;48.68;101989.88;5046830;28;45286;-64
2022/03/06 10:28:30;;;;;;;;;43.50;37.75;;;;;11.01;51.45;101981.41;5058681;28;45396;-64
2022/03/06 10:31:04;;;;;;;;;40.75;38.00;;;;;11.81;55.54;101978.81;5058707;28;45661;-68
2022/03/06 10:33:29;;;;;;;;;51.25;37.00;;;;;12.86;53.83;101990.31;5058729;28;45783;-67
2022/03/06 10:35:58;;;;;;;;;46.25;37.50;;;;;13.10;52.24;101986.41;5060903;28;45481;-69
2022/03/06 10:38:25;;;;;;;;;52.00;37.25;;;;;12.60;51.35;101989.84;5060503;28;45485;-69
2022/03/06 10:40:51;;;;;;;;;32.50;25.75;;;;;12.80;52.47;101987.78;5062088;28;46947;-69
2022/03/06 10:43:19;;;;;;;;;50.50;36.75;;;;;13.09;47.34;101987.28;5062019;28;45319;-70
2022/03/06 10:45:46;;;;;;;;;47.75;37.00;;;;;12.56;46.71;101981.22;5061963;28;45284;-64
2022/03/06 10:48:11;;;;;;;;;50.25;41.00;;;;;11.87;49.22;101974.41;5060108;28;45447;-72
2022/03/06 10:50:37;;;;;;;;;36.00;31.50;;;;;11.55;46.82;101992.13;5061418;28;45531;-73
2022/03/06 10:53:20;;;;;;;;;29.00;27.75;;;;;11.67;48.20;101991.13;5061770;28;45402;-72
2022/03/06 10:55:47;;;;;;;;;43.75;30.25;;;;;11.73;47.27;101986.69;5052282;28;45568;-72
2022/03/06 10:58:13;;;;;;;;;39.25;29.75;;;;;11.56;45.04;101991.25;5061420;28;45350;-69
2022/03/06 11:00:40;;;;;;;;;44.25;27.75;;;;;12.10;43.72;101987.13;5061477;28;45360;-70
2022/03/06 11:03:07;;;;;;;;;34.75;28.00;;;;;12.14;42.57;101983.59;5061361;28;45802;-69
2022/03/06 11:05:33;;;;;;;;;36.25;29.00;;;;;11.81;45.29;101981.41;5060899;28;45256;-72
2022/03/06 11:08:00;;;;;;;;;31.50;27.50;;;;;11.75;42.99;101991.88;5060716;28;45433;-73
2022/03/06 11:10:27;;;;;;;;;30.50;25.25;;;;;12.65;36.17;101973.25;5076675;28;48257;-71